KSVH/SVH METAR and TAF weather

Enter ICAO airport designator
Station Type Date Time Source
KSVH METAR 2019/02/21 16:00 UTC NOAA

KSVH 211600Z AUTO 26004KT 7SM OVC004 08/07 A3011 RMK AO2 T00750068


Station Type Date Time Source
KSVH Decoded METAR 2019/02/21 16:00 UTC NOAA

Statesville, Statesville Municipal Airport, NC, United States (KSVH) 35-45-55N 080-57-24W
Feb 21, 2019 - 11:00 AM EST / 2019.02.21 1600 UTC
Wind: from the W (260 degrees) at 5 MPH (4 KT):0
Visibility: 7 mile(s):0
Sky conditions: overcast
Temperature: 45.5 F (7.5 C)
Dew Point: 44.2 F (6.8 C)
Relative Humidity: 95%
Pressure (altimeter): 30.11 in. Hg (1019 hPa)
ob: KSVH 211600Z AUTO 26004KT 7SM OVC004 08/07 A3011 RMK AO2 T00750068
cycle: 16

Station Type Date Time Source
KSVH TAF UTC NOAA

Error!


Example: see airport list